sensor_id;sensor_type;location;lat;lon;timestamp;pressure;altitude;pressure_sealevel;temperature;humidity
31092;BME280;67728;53.122;12.776;2023-06-19T00:00:52;100533.69;;;13.90;89.48
31092;BME280;67728;53.122;12.776;2023-06-19T00:02:23;100543.88;;;13.97;89.31
31092;BME280;67728;53.122;12.776;2023-06-19T00:03:55;100543.28;;;13.89;89.13
31092;BME280;67728;53.122;12.776;2023-06-19T00:05:27;100541.31;;;13.96;89.15
31092;BME280;67728;53.122;12.776;2023-06-19T00:06:59;100543.13;;;13.94;89.32
31092;BME280;67728;53.122;12.776;2023-06-19T00:08:30;100538.59;;;13.99;89.32
31092;BME280;67728;53.122;12.776;2023-06-19T00:10:02;100544.78;;;13.96;89.07
31092;BME280;67728;53.122;12.776;2023-06-19T00:11:33;100543.19;;;13.92;89.47
31092;BME280;67728;53.122;12.776;2023-06-19T00:13:05;100548.94;;;13.74;90.37
31092;BME280;67728;53.122;12.776;2023-06-19T00:14:37;100544.69;;;13.71;90.81
31092;BME280;67728;53.122;12.776;2023-06-19T00:16:08;100549.19;;;13.66;91.17
31092;BME280;67728;53.122;12.776;2023-06-19T00:17:39;100542.88;;;13.73;91.32
31092;BME280;67728;53.122;12.776;2023-06-19T00:19:13;100543.75;;;13.74;90.65
31092;BME280;67728;53.122;12.776;2023-06-19T00:20:45;100551.31;;;13.82;90.58
31092;BME280;67728;53.122;12.776;2023-06-19T00:22:17;100548.44;;;13.91;90.44
31092;BME280;67728;53.122;12.776;2023-06-19T00:23:47;100544.00;;;13.93;89.49
31092;BME280;67728;53.122;12.776;2023-06-19T00:25:19;100544.78;;;13.96;89.50
31092;BME280;67728;53.122;12.776;2023-06-19T00:26:51;100542.16;;;13.96;89.18
31092;BME280;67728;53.122;12.776;2023-06-19T00:28:22;100543.63;;;13.78;88.72
31092;BME280;67728;53.122;12.776;2023-06-19T00:29:53;100542.66;;;13.81;88.74
31092;BME280;67728;53.122;12.776;2023-06-19T00:31:24;100548.00;;;13.76;88.79
31092;BME280;67728;53.122;12.776;2023-06-19T00:32:57;100551.44;;;13.78;88.67
31092;BME280;67728;53.122;12.776;2023-06-19T00:34:34;100550.00;;;13.68;89.34
31092;BME280;67728;53.122;12.776;2023-06-19T00:36:08;100552.25;;;13.81;89.16
31092;BME280;67728;53.122;12.776;2023-06-19T00:37:40;100550.25;;;13.89;89.33
31092;BME280;67728;53.122;12.776;2023-06-19T00:39:14;100549.09;;;13.69;90.26
31092;BME280;67728;53.122;12.776;2023-06-19T00:40:46;100551.31;;;13.82;90.32
31092;BME280;67728;53.122;12.776;2023-06-19T00:42:17;100550.50;;;13.81;90.20
31092;BME280;67728;53.122;12.776;2023-06-19T00:43:49;100552.94;;;13.86;89.62
31092;BME280;67728;53.122;12.776;2023-06-19T00:45:23;100544.88;;;13.93;89.89
31092;BME280;67728;53.122;12.776;2023-06-19T00:46:57;100548.34;;;13.94;88.86
31092;BME280;67728;53.122;12.776;2023-06-19T00:48:30;100550.06;;;13.95;89.21
31092;BME280;67728;53.122;12.776;2023-06-19T00:50:05;100541.50;;;13.90;88.84
31092;BME280;67728;53.122;12.776;2023-06-19T00:51:36;100549.44;;;13.87;88.90
31092;BME280;67728;53.122;12.776;2023-06-19T00:53:08;100537.13;;;13.92;88.94
31092;BME280;67728;53.122;12.776;2023-06-19T00:54:39;100540.44;;;13.95;88.78
31092;BME280;67728;53.122;12.776;2023-06-19T00:56:11;100542.34;;;13.90;88.88
31092;BME280;67728;53.122;12.776;2023-06-19T00:57:45;100534.44;;;13.93;89.41
31092;BME280;67728;53.122;12.776;2023-06-19T00:59:17;100540.50;;;13.94;88.98
31092;BME280;67728;53.122;12.776;2023-06-19T01:00:49;100535.41;;;13.91;89.24
31092;BME280;67728;53.122;12.776;2023-06-19T01:02:20;100532.84;;;13.89;88.60
31092;BME280;67728;53.122;12.776;2023-06-19T01:03:54;100531.03;;;13.91;89.18
31092;BME280;67728;53.122;12.776;2023-06-19T01:05:27;100528.69;;;13.84;89.67
31092;BME280;67728;53.122;12.776;2023-06-19T01:07:09;100527.03;;;13.81;90.35
31092;BME280;67728;53.122;12.776;2023-06-19T01:08:49;100532.38;;;13.76;90.35
31092;BME280;67728;53.122;12.776;2023-06-19T01:10:25;100534.00;;;13.81;90.46
31092;BME280;67728;53.122;12.776;2023-06-19T01:12:02;100531.19;;;13.87;90.40
31092;BME280;67728;53.122;12.776;2023-06-19T01:13:44;100531.41;;;13.79;90.21
31092;BME280;67728;53.122;12.776;2023-06-19T01:15:16;100528.28;;;13.68;91.73
31092;BME280;67728;53.122;12.776;2023-06-19T01:16:48;100531.09;;;13.62;91.16
31092;BME280;67728;53.122;12.776;2023-06-19T01:18:20;100530.34;;;13.58;91.03
31092;BME280;67728;53.122;12.776;2023-06-19T01:19:53;100527.63;;;13.61;91.96
31092;BME280;67728;53.122;12.776;2023-06-19T01:21:25;100528.25;;;13.69;91.64
31092;BME280;67728;53.122;12.776;2023-06-19T01:23:06;100527.47;;;13.67;91.44
31092;BME280;67728;53.122;12.776;2023-06-19T01:24:37;100529.13;;;13.70;91.44
31092;BME280;67728;53.122;12.776;2023-06-19T01:26:10;100535.13;;;13.72;91.54
31092;BME280;67728;53.122;12.776;2023-06-19T01:27:41;100529.28;;;13.64;92.35
31092;BME280;67728;53.122;12.776;2023-06-19T01:29:14;100523.94;;;13.68;92.58
31092;BME280;67728;53.122;12.776;2023-06-19T01:30:46;100533.56;;;13.66;91.91
31092;BME280;67728;53.122;12.776;2023-06-19T01:32:20;100524.53;;;13.76;92.26
31092;BME280;67728;53.122;12.776;2023-06-19T01:33:54;100523.69;;;13.76;91.43
31092;BME280;67728;53.122;12.776;2023-06-19T01:35:28;100526.41;;;13.73;91.83
31092;BME280;67728;53.122;12.776;2023-06-19T01:37:01;100521.22;;;13.71;91.74
31092;BME280;67728;53.122;12.776;2023-06-19T01:38:35;100525.16;;;13.85;92.04
31092;BME280;67728;53.122;12.776;2023-06-19T01:40:10;100518.78;;;13.93;91.89
31092;BME280;67728;53.122;12.776;2023-06-19T01:41:42;100519.56;;;13.97;91.17
31092;BME280;67728;53.122;12.776;2023-06-19T01:43:14;100518.78;;;13.93;91.03
31092;BME280;67728;53.122;12.776;2023-06-19T01:44:47;100519.06;;;13.84;91.22
31092;BME280;67728;53.122;12.776;2023-06-19T01:46:19;100519.06;;;13.84;91.33
31092;BME280;67728;53.122;12.776;2023-06-19T01:47:50;100512.22;;;13.82;91.26
31092;BME280;67728;53.122;12.776;2023-06-19T01:49:21;100511.91;;;13.64;92.03
31092;BME280;67728;53.122;12.776;2023-06-19T01:50:53;100510.00;;;13.69;91.97
31092;BME280;67728;53.122;12.776;2023-06-19T01:52:24;100504.78;;;13.69;91.73
31092;BME280;67728;53.122;12.776;2023-06-19T01:53:58;100508.00;;;13.77;91.83
31092;BME280;67728;53.122;12.776;2023-06-19T01:55:29;100505.59;;;13.71;91.44
31092;BME280;67728;53.122;12.776;2023-06-19T01:57:01;100507.56;;;13.65;92.29
31092;BME280;67728;53.122;12.776;2023-06-19T01:58:32;100501.66;;;13.58;92.58
31092;BME280;67728;53.122;12.776;2023-06-19T02:00:07;100502.47;;;13.60;92.14
31092;BME280;67728;53.122;12.776;2023-06-19T02:01:38;100502.44;;;13.62;92.57
31092;BME280;67728;53.122;12.776;2023-06-19T02:03:09;100497.97;;;13.65;92.47
31092;BME280;67728;53.122;12.776;2023-06-19T02:04:41;100486.78;;;13.62;92.56
31092;BME280;67728;53.122;12.776;2023-06-19T02:06:11;100488.47;;;13.63;92.52
31092;BME280;67728;53.122;12.776;2023-06-19T02:07:43;100493.47;;;13.70;92.81
31092;BME280;67728;53.122;12.776;2023-06-19T02:09:16;100492.72;;;13.67;92.59
31092;BME280;67728;53.122;12.776;2023-06-19T02:10:48;100496.09;;;13.70;93.08
31092;BME280;67728;53.122;12.776;2023-06-19T02:12:18;100487.34;;;13.71;93.08
31092;BME280;67728;53.122;12.776;2023-06-19T02:13:50;100484.84;;;13.68;93.19
31092;BME280;67728;53.122;12.776;2023-06-19T02:15:22;100485.16;;;13.58;93.31
31092;BME280;67728;53.122;12.776;2023-06-19T02:16:53;100483.44;;;13.58;93.50
31092;BME280;67728;53.122;12.776;2023-06-19T02:18:25;100483.50;;;13.57;93.79
31092;BME280;67728;53.122;12.776;2023-06-19T02:19:56;100472.84;;;13.63;93.68
31092;BME280;67728;53.122;12.776;2023-06-19T02:21:27;100473.53;;;13.68;93.55
31092;BME280;67728;53.122;12.776;2023-06-19T02:22:58;100476.31;;;13.63;93.02
31092;BME280;67728;53.122;12.776;2023-06-19T02:24:31;100471.81;;;13.68;92.96
31092;BME280;67728;53.122;12.776;2023-06-19T02:26:02;100471.81;;;13.68;92.85
31092;BME280;67728;53.122;12.776;2023-06-19T02:27:34;100476.88;;;13.73;92.96
31092;BME280;67728;53.122;12.776;2023-06-19T02:29:05;100480.31;;;13.73;92.84
31092;BME280;67728;53.122;12.776;2023-06-19T02:30:36;100466.50;;;13.71;93.24
31092;BME280;67728;53.122;12.776;2023-06-19T02:32:08;100470.03;;;13.70;93.44
31092;BME280;67728;53.122;12.776;2023-06-19T02:33:39;100472.72;;;13.67;92.96
31092;BME280;67728;53.122;12.776;2023-06-19T02:35:11;100472.72;;;13.67;93.18
31092;BME280;67728;53.122;12.776;2023-06-19T02:36:42;100470.03;;;13.70;93.13
31092;BME280;67728;53.122;12.776;2023-06-19T02:38:17;100468.34;;;13.68;93.03
31092;BME280;67728;53.122;12.776;2023-06-19T02:39:52;100467.72;;;13.60;92.75
31092;BME280;67728;53.122;12.776;2023-06-19T02:41:24;100465.03;;;13.63;93.54
31092;BME280;67728;53.122;12.776;2023-06-19T02:42:56;100462.38;;;13.64;92.90
31092;BME280;67728;53.122;12.776;2023-06-19T02:44:26;100463.00;;;13.72;92.94
31092;BME280;67728;53.122;12.776;2023-06-19T02:45:58;100461.03;;;13.79;92.52
31092;BME280;67728;53.122;12.776;2023-06-19T02:47:29;100454.81;;;13.83;92.56
31092;BME280;67728;53.122;12.776;2023-06-19T02:49:01;100461.53;;;13.90;92.43
31092;BME280;67728;53.122;12.776;2023-06-19T02:50:33;100463.19;;;13.93;92.19
31092;BME280;67728;53.122;12.776;2023-06-19T02:52:06;100460.53;;;13.94;92.30
31092;BME280;67728;53.122;12.776;2023-06-19T02:53:37;100463.09;;;13.96;92.09
31092;BME280;67728;53.122;12.776;2023-06-19T02:55:10;100454.41;;;13.95;92.15
31092;BME280;67728;53.122;12.776;2023-06-19T02:56:41;100462.38;;;13.91;91.89
31092;BME280;67728;53.122;12.776;2023-06-19T02:58:12;100460.03;;;13.83;92.43
31092;BME280;67728;53.122;12.776;2023-06-19T02:59:44;100467.00;;;13.83;92.39
31092;BME280;67728;53.122;12.776;2023-06-19T03:01:16;100464.47;;;13.81;92.88
31092;BME280;67728;53.122;12.776;2023-06-19T03:02:47;100468.13;;;13.75;92.71
31092;BME280;67728;53.122;12.776;2023-06-19T03:04:18;100465.00;;;13.64;93.48
31092;BME280;67728;53.122;12.776;2023-06-19T03:05:50;100465.78;;;13.66;93.51
31092;BME280;67728;53.122;12.776;2023-06-19T03:07:21;100468.22;;;13.72;93.65
31092;BME280;67728;53.122;12.776;2023-06-19T03:08:52;100469.19;;;13.68;93.49
31092;BME280;67728;53.122;12.776;2023-06-19T03:10:25;100470.91;;;13.69;93.55
31092;BME280;67728;53.122;12.776;2023-06-19T03:11:57;100468.13;;;13.75;93.46
31092;BME280;67728;53.122;12.776;2023-06-19T03:13:29;100468.22;;;13.72;92.73
31092;BME280;67728;53.122;12.776;2023-06-19T03:14:59;100469.81;;;13.76;93.33
31092;BME280;67728;53.122;12.776;2023-06-19T03:16:31;100475.00;;;13.76;93.07
31092;BME280;67728;53.122;12.776;2023-06-19T03:18:01;100477.69;;;13.75;92.89
31092;BME280;67728;53.122;12.776;2023-06-19T03:19:36;100480.81;;;13.85;92.89
31092;BME280;67728;53.122;12.776;2023-06-19T03:21:07;100484.09;;;13.91;92.86
31092;BME280;67728;53.122;12.776;2023-06-19T03:22:39;100482.19;;;13.96;92.70
31092;BME280;67728;53.122;12.776;2023-06-19T03:24:10;100483.94;;;13.96;92.20
31092;BME280;67728;53.122;12.776;2023-06-19T03:25:44;100487.41;;;13.96;92.20
31092;BME280;67728;53.122;12.776;2023-06-19T03:27:16;100486.88;;;13.87;92.40
31092;BME280;67728;53.122;12.776;2023-06-19T03:28:47;100490.41;;;13.84;92.86
31092;BME280;67728;53.122;12.776;2023-06-19T03:30:19;100491.34;;;13.82;93.23
31092;BME280;67728;53.122;12.776;2023-06-19T03:31:50;100491.34;;;13.82;93.32
31092;BME280;67728;53.122;12.776;2023-06-19T03:33:22;100493.84;;;13.86;92.97
31092;BME280;67728;53.122;12.776;2023-06-19T03:34:52;100498.22;;;13.84;93.31
31092;BME280;67728;53.122;12.776;2023-06-19T03:36:24;100489.47;;;13.87;93.04
31092;BME280;67728;53.122;12.776;2023-06-19T03:37:56;100492.88;;;13.89;93.49
31092;BME280;67728;53.122;12.776;2023-06-19T03:39:27;100494.38;;;13.96;93.12
31092;BME280;67728;53.122;12.776;2023-06-19T03:40:59;100498.72;;;13.95;93.33
31092;BME280;67728;53.122;12.776;2023-06-19T03:42:31;100496.88;;;13.99;92.98
31092;BME280;67728;53.122;12.776;2023-06-19T03:44:04;100497.78;;;13.98;93.25
31092;BME280;67728;53.122;12.776;2023-06-19T03:45:35;100492.47;;;14.01;93.56
31092;BME280;67728;53.122;12.776;2023-06-19T03:47:07;100491.47;;;14.05;93.55
31092;BME280;67728;53.122;12.776;2023-06-19T03:48:38;100501.03;;;14.04;93.49
31092;BME280;67728;53.122;12.776;2023-06-19T03:50:10;100500.16;;;14.05;93.68
31092;BME280;67728;53.122;12.776;2023-06-19T03:51:42;100502.06;;;14.00;93.25
31092;BME280;67728;53.122;12.776;2023-06-19T03:53:14;100492.25;;;14.07;93.00
31092;BME280;67728;53.122;12.776;2023-06-19T03:54:45;100494.84;;;14.08;92.46
31092;BME280;67728;53.122;12.776;2023-06-19T03:56:17;100492.06;;;14.13;92.41
31092;BME280;67728;53.122;12.776;2023-06-19T03:57:49;100496.03;;;14.24;92.39
31092;BME280;67728;53.122;12.776;2023-06-19T03:59:20;100493.28;;;14.27;91.92
31092;BME280;67728;53.122;12.776;2023-06-19T04:00:51;100489.91;;;14.25;91.25
31092;BME280;67728;53.122;12.776;2023-06-19T04:02:23;100496.81;;;14.26;91.73
31092;BME280;67728;53.122;12.776;2023-06-19T04:03:55;100493.19;;;14.30;91.26
31092;BME280;67728;53.122;12.776;2023-06-19T04:05:27;100493.03;;;14.36;91.12
31092;BME280;67728;53.122;12.776;2023-06-19T04:06:58;100489.56;;;14.36;91.82
31092;BME280;67728;53.122;12.776;2023-06-19T04:08:31;100478.91;;;14.42;91.04
31092;BME280;67728;53.122;12.776;2023-06-19T04:10:01;100485.88;;;14.42;91.06
31092;BME280;67728;53.122;12.776;2023-06-19T04:11:36;100474.47;;;14.44;91.68
31092;BME280;67728;53.122;12.776;2023-06-19T04:13:08;100484.81;;;14.47;91.37
31092;BME280;67728;53.122;12.776;2023-06-19T04:14:39;100478.44;;;14.56;91.40
31092;BME280;67728;53.122;12.776;2023-06-19T04:16:10;100482.41;;;14.66;91.33
31092;BME280;67728;53.122;12.776;2023-06-19T04:17:42;100476.41;;;14.64;90.65
31092;BME280;67728;53.122;12.776;2023-06-19T04:19:13;100479.69;;;14.69;90.75
31092;BME280;67728;53.122;12.776;2023-06-19T04:20:45;100477.88;;;14.71;91.19
31092;BME280;67728;53.122;12.776;2023-06-19T04:22:16;100476.69;;;14.79;90.07
31092;BME280;67728;53.122;12.776;2023-06-19T04:23:47;100475.56;;;14.86;90.22
31092;BME280;67728;53.122;12.776;2023-06-19T04:25:19;100475.22;;;14.95;91.16
31092;BME280;67728;53.122;12.776;2023-06-19T04:26:52;100466.38;;;15.00;89.83
31092;BME280;67728;53.122;12.776;2023-06-19T04:28:24;100471.41;;;15.04;90.38
31092;BME280;67728;53.122;12.776;2023-06-19T04:29:56;100473.84;;;15.09;90.35
31092;BME280;67728;53.122;12.776;2023-06-19T04:31:28;100475.44;;;15.13;89.53
31092;BME280;67728;53.122;12.776;2023-06-19T04:33:00;100477.03;;;15.17;89.44
31092;BME280;67728;53.122;12.776;2023-06-19T04:34:31;100481.13;;;15.24;89.86
31092;BME280;67728;53.122;12.776;2023-06-19T04:36:03;100473.94;;;15.29;88.99
31092;BME280;67728;53.122;12.776;2023-06-19T04:37:34;100476.56;;;15.29;89.49
31092;BME280;67728;53.122;12.776;2023-06-19T04:39:05;100477.22;;;15.34;88.72
31092;BME280;67728;53.122;12.776;2023-06-19T04:40:37;100484.97;;;15.37;88.75
31092;BME280;67728;53.122;12.776;2023-06-19T04:42:10;100488.09;;;15.46;90.22
31092;BME280;67728;53.122;12.776;2023-06-19T04:43:43;100486.34;;;15.47;88.98
31092;BME280;67728;53.122;12.776;2023-06-19T04:45:13;100489.75;;;15.49;88.55
31092;BME280;67728;53.122;12.776;2023-06-19T04:46:45;100485.97;;;15.56;89.73
31092;BME280;67728;53.122;12.776;2023-06-19T04:48:17;100494.59;;;15.58;89.41
31092;BME280;67728;53.122;12.776;2023-06-19T04:49:48;100491.03;;;15.61;89.38
31092;BME280;67728;53.122;12.776;2023-06-19T04:51:20;100494.25;;;15.67;90.14
31092;BME280;67728;53.122;12.776;2023-06-19T04:52:51;100497.53;;;15.72;89.75
31092;BME280;67728;53.122;12.776;2023-06-19T04:54:24;100495.59;;;15.77;88.99
31092;BME280;67728;53.122;12.776;2023-06-19T04:55:55;100496.25;;;15.82;89.78
31092;BME280;67728;53.122;12.776;2023-06-19T04:57:28;100497.88;;;15.85;89.49
31092;BME280;67728;53.122;12.776;2023-06-19T04:58:59;100492.06;;;15.78;88.53
31092;BME280;67728;53.122;12.776;2023-06-19T05:00:31;100488.53;;;15.79;89.23
31092;BME280;67728;53.122;12.776;2023-06-19T05:02:02;100490.22;;;15.80;90.47
31092;BME280;67728;53.122;12.776;2023-06-19T05:03:34;100488.53;;;15.79;90.06
31092;BME280;67728;53.122;12.776;2023-06-19T05:05:06;100492.06;;;15.78;90.76
31092;BME280;67728;53.122;12.776;2023-06-19T05:06:37;100498.94;;;15.81;90.57
31092;BME280;67728;53.122;12.776;2023-06-19T05:08:09;100491.94;;;15.81;89.81
31092;BME280;67728;53.122;12.776;2023-06-19T05:09:40;100494.41;;;15.84;90.56
31092;BME280;67728;53.122;12.776;2023-06-19T05:11:12;100491.88;;;15.83;89.46
31092;BME280;67728;53.122;12.776;2023-06-19T05:12:45;100496.00;;;15.88;90.07
31092;BME280;67728;53.122;12.776;2023-06-19T05:14:17;100494.06;;;15.93;89.48
31092;BME280;67728;53.122;12.776;2023-06-19T05:15:48;100498.09;;;16.00;90.72
31092;BME280;67728;53.122;12.776;2023-06-19T05:17:20;100492.88;;;16.00;89.71
31092;BME280;67728;53.122;12.776;2023-06-19T05:18:52;100485.72;;;16.05;90.35
31092;BME280;67728;53.122;12.776;2023-06-19T05:20:24;100486.28;;;16.12;89.76
31092;BME280;67728;53.122;12.776;2023-06-19T05:21:55;100486.03;;;16.18;89.42
31092;BME280;67728;53.122;12.776;2023-06-19T05:23:27;100486.81;;;16.20;88.93
31092;BME280;67728;53.122;12.776;2023-06-19T05:24:59;100485.50;;;16.30;89.08
31092;BME280;67728;53.122;12.776;2023-06-19T05:26:30;100484.69;;;16.30;89.46
31092;BME280;67728;53.122;12.776;2023-06-19T05:28:03;100487.88;;;16.36;89.46
31092;BME280;67728;53.122;12.776;2023-06-19T05:29:36;100483.56;;;16.35;89.66
31092;BME280;67728;53.122;12.776;2023-06-19T05:31:07;100483.25;;;16.43;89.66
31092;BME280;67728;53.122;12.776;2023-06-19T05:32:38;100487.41;;;16.47;89.22
31092;BME280;67728;53.122;12.776;2023-06-19T05:34:09;100483.75;;;16.51;88.97
31092;BME280;67728;53.122;12.776;2023-06-19T05:35:41;100487.19;;;16.53;89.07
31092;BME280;67728;53.122;12.776;2023-06-19T05:37:13;100495.81;;;16.55;89.87
31092;BME280;67728;53.122;12.776;2023-06-19T05:38:45;100484.31;;;16.59;89.72
31092;BME280;67728;53.122;12.776;2023-06-19T05:40:16;100488.59;;;16.60;89.03
31092;BME280;67728;53.122;12.776;2023-06-19T05:41:48;100490.28;;;16.62;89.57
31092;BME280;67728;53.122;12.776;2023-06-19T05:43:21;100490.31;;;16.61;89.02
31092;BME280;67728;53.122;12.776;2023-06-19T05:44:54;100490.19;;;16.64;89.44
31092;BME280;67728;53.122;12.776;2023-06-19T05:46:26;100494.34;;;16.68;89.78
31092;BME280;67728;53.122;12.776;2023-06-19T05:47:58;100490.06;;;16.67;88.96
31092;BME280;67728;53.122;12.776;2023-06-19T05:49:29;100495.28;;;16.67;88.92
31092;BME280;67728;53.122;12.776;2023-06-19T05:51:01;100503.16;;;16.67;89.28
31092;BME280;67728;53.122;12.776;2023-06-19T05:52:33;100495.16;;;16.70;88.33
31092;BME280;67728;53.122;12.776;2023-06-19T05:54:04;100494.31;;;16.69;88.87
31092;BME280;67728;53.122;12.776;2023-06-19T05:55:36;100499.69;;;16.66;88.86
31092;BME280;67728;53.122;12.776;2023-06-19T05:57:08;100511.91;;;16.66;89.67
31092;BME280;67728;53.122;12.776;2023-06-19T05:58:41;100504.13;;;16.64;89.04
31092;BME280;67728;53.122;12.776;2023-06-19T06:00:13;100505.81;;;16.65;88.51
31092;BME280;67728;53.122;12.776;2023-06-19T06:01:45;100506.69;;;16.66;89.75
31092;BME280;67728;53.122;12.776;2023-06-19T06:03:17;100496.78;;;16.72;88.36
31092;BME280;67728;53.122;12.776;2023-06-19T06:04:48;100503.88;;;16.70;88.36
31092;BME280;67728;53.122;12.776;2023-06-19T06:06:20;100501.94;;;16.74;87.97
31092;BME280;67728;53.122;12.776;2023-06-19T06:07:52;100502.94;;;16.71;88.09
31092;BME280;67728;53.122;12.776;2023-06-19T06:09:23;100508.13;;;16.73;89.27
31092;BME280;67728;53.122;12.776;2023-06-19T06:10:55;100508.78;;;16.78;88.35
31092;BME280;67728;53.122;12.776;2023-06-19T06:12:27;100513.06;;;16.79;88.24
31092;BME280;67728;53.122;12.776;2023-06-19T06:14:00;100506.94;;;16.80;89.57
31092;BME280;67728;53.122;12.776;2023-06-19T06:15:31;100506.03;;;16.81;88.40
31092;BME280;67728;53.122;12.776;2023-06-19T06:17:03;100509.41;;;16.83;88.71
31092;BME280;67728;53.122;12.776;2023-06-19T06:18:36;100506.94;;;16.80;88.87
31092;BME280;67728;53.122;12.776;2023-06-19T06:20:08;100505.94;;;16.83;89.08
31092;BME280;67728;53.122;12.776;2023-06-19T06:21:42;100516.41;;;16.83;88.93
31092;BME280;67728;53.122;12.776;2023-06-19T06:23:13;100510.28;;;16.84;88.51
31092;BME280;67728;53.122;12.776;2023-06-19T06:24:45;100513.75;;;16.84;89.00
31092;BME280;67728;53.122;12.776;2023-06-19T06:26:17;100512.03;;;16.83;88.88
31092;BME280;67728;53.122;12.776;2023-06-19T06:27:49;100516.38;;;16.84;89.45
31092;BME280;67728;53.122;12.776;2023-06-19T06:29:22;100522.44;;;16.85;88.87
31092;BME280;67728;53.122;12.776;2023-06-19T06:30:54;100524.88;;;16.89;89.05
31092;BME280;67728;53.122;12.776;2023-06-19T06:32:25;100525.50;;;16.94;89.21
31092;BME280;67728;53.122;12.776;2023-06-19T06:33:59;100536.63;;;16.99;88.86
31092;BME280;67728;53.122;12.776;2023-06-19T06:35:31;100530.31;;;17.03;88.89
31092;BME280;67728;53.122;12.776;2023-06-19T06:37:03;100537.06;;;17.09;89.22
31092;BME280;67728;53.122;12.776;2023-06-19T06:38:34;100538.56;;;17.14;88.86
31092;BME280;67728;53.122;12.776;2023-06-19T06:40:07;100543.88;;;17.13;89.25
31092;BME280;67728;53.122;12.776;2023-06-19T06:41:41;100536.75;;;17.16;88.84
31092;BME280;67728;53.122;12.776;2023-06-19T06:43:12;100536.53;;;17.21;89.37
31092;BME280;67728;53.122;12.776;2023-06-19T06:44:46;100535.63;;;17.22;89.73
31092;BME280;67728;53.122;12.776;2023-06-19T06:46:18;100535.63;;;17.22;87.95
31092;BME280;67728;53.122;12.776;2023-06-19T06:47:50;100538.88;;;17.27;88.41
31092;BME280;67728;53.122;12.776;2023-06-19T06:49:21;100537.66;;;17.34;88.22
31092;BME280;67728;53.122;12.776;2023-06-19T06:50:53;100529.72;;;17.35;85.59
31092;BME280;67728;53.122;12.776;2023-06-19T06:52:31;100529.38;;;17.43;86.12
31092;BME280;67728;53.122;12.776;2023-06-19T06:54:02;100520.28;;;17.50;84.15
31092;BME280;67728;53.122;12.776;2023-06-19T06:55:34;100520.91;;;17.57;83.53
31092;BME280;67728;53.122;12.776;2023-06-19T06:57:06;100520.66;;;17.61;83.34
31092;BME280;67728;53.122;12.776;2023-06-19T06:58:38;100529.94;;;17.68;83.01
31092;BME280;67728;53.122;12.776;2023-06-19T07:00:13;100524.41;;;17.74;82.52
31092;BME280;67728;53.122;12.776;2023-06-19T07:01:44;100536.53;;;17.77;83.08
31092;BME280;67728;53.122;12.776;2023-06-19T07:03:16;100532.00;;;17.80;83.02
31092;BME280;67728;53.122;12.776;2023-06-19T07:04:48;100538.78;;;17.84;82.86
31092;BME280;67728;53.122;12.776;2023-06-19T07:06:19;100542.06;;;17.89;82.35
31092;BME280;67728;53.122;12.776;2023-06-19T07:07:51;100538.97;;;17.81;84.94
31092;BME280;67728;53.122;12.776;2023-06-19T07:09:23;100541.16;;;17.72;85.30
31092;BME280;67728;53.122;12.776;2023-06-19T07:10:55;100542.56;;;17.60;86.40
31092;BME280;67728;53.122;12.776;2023-06-19T07:12:26;100540.16;;;17.56;85.12
31092;BME280;67728;53.122;12.776;2023-06-19T07:13:57;100543.56;;;17.58;85.55
31092;BME280;67728;53.122;12.776;2023-06-19T07:15:30;100550.28;;;17.63;84.43
31092;BME280;67728;53.122;12.776;2023-06-19T07:17:01;100548.53;;;17.64;84.46
31092;BME280;67728;53.122;12.776;2023-06-19T07:18:33;100546.00;;;17.62;86.05
31092;BME280;67728;53.122;12.776;2023-06-19T07:20:08;100546.59;;;17.49;87.32
31092;BME280;67728;53.122;12.776;2023-06-19T07:21:39;100545.53;;;17.53;86.74
31092;BME280;67728;53.122;12.776;2023-06-19T07:23:11;100543.84;;;17.52;88.21
31092;BME280;67728;53.122;12.776;2023-06-19T07:24:43;100540.72;;;17.44;87.59
31092;BME280;67728;53.122;12.776;2023-06-19T07:26:15;100535.91;;;17.34;86.65
31092;BME280;67728;53.122;12.776;2023-06-19T07:27:46;100535.81;;;17.36;87.66
31092;BME280;67728;53.122;12.776;2023-06-19T07:29:18;100539.38;;;17.35;88.14
31092;BME280;67728;53.122;12.776;2023-06-19T07:30:51;100535.63;;;17.41;87.45
31092;BME280;67728;53.122;12.776;2023-06-19T07:32:24;100537.25;;;17.43;87.67
31092;BME280;67728;53.122;12.776;2023-06-19T07:33:55;100534.53;;;17.45;87.45
31092;BME280;67728;53.122;12.776;2023-06-19T07:35:27;100532.38;;;17.54;87.13
31092;BME280;67728;53.122;12.776;2023-06-19T07:36:58;100544.50;;;17.57;86.27
31092;BME280;67728;53.122;12.776;2023-06-19T07:38:30;100549.66;;;17.58;86.49
31092;BME280;67728;53.122;12.776;2023-06-19T07:40:02;100545.91;;;17.64;86.94
31092;BME280;67728;53.122;12.776;2023-06-19T07:41:34;100544.06;;;17.66;88.80
31092;BME280;67728;53.122;12.776;2023-06-19T07:43:06;100546.19;;;17.58;89.14
31092;BME280;67728;53.122;12.776;2023-06-19T07:44:37;100545.81;;;17.47;87.06
31092;BME280;67728;53.122;12.776;2023-06-19T07:46:10;100554.47;;;17.49;87.58
31092;BME280;67728;53.122;12.776;2023-06-19T07:47:42;100551.44;;;17.58;87.38
31092;BME280;67728;53.122;12.776;2023-06-19T07:49:13;100553.69;;;17.65;87.43
31092;BME280;67728;53.122;12.776;2023-06-19T07:50:45;100558.75;;;17.70;87.73
31092;BME280;67728;53.122;12.776;2023-06-19T07:52:17;100554.91;;;17.77;88.04
31092;BME280;67728;53.122;12.776;2023-06-19T07:53:49;100561.56;;;17.84;88.61
31092;BME280;67728;53.122;12.776;2023-06-19T07:55:20;100563.97;;;17.88;88.80